Kezdőlap
METAR-TAF:

METAR-TAF

Repülőterek :

Windom Municipal Airport

Windom, Minnesota, Amerikai Egyesült Államok

földrajzi szélesség: 43-54-48N, földrajzi hosszúság: 095-06-34W, magasság: 430 m

Jelenlegi meteorológiai megfigyelések

A jelentés 14 perccel ezelõtt készült, 05:35 UTC
Kelet-északkeleti szél 5 kt
Hőmérséklet -3°C
Páratartalom 100%
Légköri nyomás 1004 hPa
Látótávolság: 0.4 km
Borult 100 lábon
enyhe havazás

METAR: KMWM 090535Z AUTO 07005KT 1/4SM -SN OVC001 M03/M03 A2964 RMK AO2

Idő: 23:49 (05:49 UTC)


TAF: hiányzik

Meteorológiai megfigyelések és előrejelzések több, mint 4000 repülőtéren (METAR és TAF jelentéseket).

A térképen piros és sárga pontok jelzik az elérhető meteorológiai állomásokat.

Mozgassa az egeret a pont fölött, hogy megjelenjen az állomás neve.

Azután kattintson az időjárási megfigyelések és előrejelzések megtekintéséhez.

A térkép megváltoztatása: kattintson a fekete keresztel jelölt zöld gombra ráközelítéshez, a vonallal jelölt zöld gombra távolításhoz, vagy a zöld nyilakra a szomszédos térképek eléréséhez.


METAR-TAF: